Pagina principale
METAR-TAF:

METAR-TAF

Aeroporti :

Aeroporto Internazionale di Riyad-Re Khalid

Riyad, Arabia Saudita

latitudine: 24-56N, longitudine: 046-43E, altezza: 614 m

Osservazione

Il bollettino è stato emesso 13 minuti fa, alle 16:00 UTC
Vento 8 kt da nord/nord-est
Temperature 40°C
Umidità 10%
Pressione 1010 hPa
Visibilità: 7000 m

METAR: OERK 051600Z 02008KT 7000 NSC 40/02 Q1010 NOSIG

Ora: 19:13 (16:13 UTC)

Previsione

Il bollettino è stato emesso 5 ore e 13 minuti fa, alle 11:00 UTC
Previsione valida dal 05 alle 12 UTC al 06 alle 18 UTC
Vento 15 kt da nord-est
Visibilità: 6000 m
Temporaneamente
dal 05 alle 12 UTC al 05 alle 20 UTC
Visibilità: 4000 m
Scaccia polvere alto
Probabilità 30% :
Temporaneamente
dal 05 alle 12 UTC al 05 alle 18 UTC
Visibilità: 1500 m
Evoluzione graduale
dal 05 alle 18 UTC al 05 alle 20 UTC
Vento 6 kt da nord

TAF: OERK 051100Z 0512/0618 04015KT 6000 NSC TEMPO 0512/0520 4000 BLDU PROB30 TEMPO 0512/0518 1500 BECMG 0518/0520 36006KT

Osservazioni e previsioni meteorologiche di più di 4000 aeroporti (messaggi METAR e TAF).

Le stazioni disponibili sono rappresentate dai dischi gialli e rossi sulla carta.

Puntare il mouse per vedere il nome della stazione.

Clicca sopra per visualizzare le osservazioni e previsioni meteorologiche.

Per cambiare la mappa : fare clic sui pulsanti verdi con una croce nera per ingrandire, il pulsante verde con un trattino per diminuire, o sulla freccia verde per le mappe adiacenti.


METAR-TAF: